sensor_id;sensor_type;location;lat;lon;timestamp;P1;durP1;ratioP1;P2;durP2;ratioP2
13933;SDS011;7039;52.168;9.866;2022-08-11T00:00:56;5.53;;;3.87;;
13933;SDS011;7039;52.168;9.866;2022-08-11T00:03:24;3.53;;;3.23;;
13933;SDS011;7039;52.168;9.866;2022-08-11T00:05:52;9.37;;;3.60;;
13933;SDS011;7039;52.168;9.866;2022-08-11T00:08:22;4.23;;;3.63;;
13933;SDS011;7039;52.168;9.866;2022-08-11T00:10:51;5.73;;;3.47;;
13933;SDS011;7039;52.168;9.866;2022-08-11T00:13:20;6.63;;;3.23;;
13933;SDS011;7039;52.168;9.866;2022-08-11T00:15:56;9.33;;;3.80;;
13933;SDS011;7039;52.168;9.866;2022-08-11T00:18:23;4.80;;;3.20;;
13933;SDS011;7039;52.168;9.866;2022-08-11T00:20:50;3.80;;;3.37;;
13933;SDS011;7039;52.168;9.866;2022-08-11T00:23:25;5.20;;;3.60;;
13933;SDS011;7039;52.168;9.866;2022-08-11T00:25:53;4.93;;;3.30;;
13933;SDS011;7039;52.168;9.866;2022-08-11T00:28:24;6.27;;;3.20;;
13933;SDS011;7039;52.168;9.866;2022-08-11T00:30:52;4.23;;;3.00;;
13933;SDS011;7039;52.168;9.866;2022-08-11T00:33:21;3.97;;;3.00;;
13933;SDS011;7039;52.168;9.866;2022-08-11T00:35:50;5.97;;;3.20;;
13933;SDS011;7039;52.168;9.866;2022-08-11T00:38:22;4.97;;;3.10;;
13933;SDS011;7039;52.168;9.866;2022-08-11T00:40:54;7.30;;;3.30;;
13933;SDS011;7039;52.168;9.866;2022-08-11T00:43:31;5.63;;;3.33;;
13933;SDS011;7039;52.168;9.866;2022-08-11T00:46:09;5.23;;;3.30;;
13933;SDS011;7039;52.168;9.866;2022-08-11T00:48:44;5.60;;;3.53;;
13933;SDS011;7039;52.168;9.866;2022-08-11T00:51:28;7.63;;;3.63;;
13933;SDS011;7039;52.168;9.866;2022-08-11T00:54:07;6.03;;;3.30;;
13933;SDS011;7039;52.168;9.866;2022-08-11T01:00:05;3.70;;;3.10;;
13933;SDS011;7039;52.168;9.866;2022-08-11T01:02:45;5.67;;;3.23;;
13933;SDS011;7039;52.168;9.866;2022-08-11T01:05:27;4.83;;;3.20;;
13933;SDS011;7039;52.168;9.866;2022-08-11T01:08:13;3.40;;;2.90;;
13933;SDS011;7039;52.168;9.866;2022-08-11T01:11:01;7.33;;;3.30;;
13933;SDS011;7039;52.168;9.866;2022-08-11T01:16:52;7.13;;;3.40;;
13933;SDS011;7039;52.168;9.866;2022-08-11T01:20:02;3.40;;;2.83;;
13933;SDS011;7039;52.168;9.866;2022-08-11T01:29:03;4.43;;;3.20;;
13933;SDS011;7039;52.168;9.866;2022-08-11T01:32:03;7.53;;;3.83;;
13933;SDS011;7039;52.168;9.866;2022-08-11T01:34:52;5.37;;;3.50;;
13933;SDS011;7039;52.168;9.866;2022-08-11T01:37:47;6.33;;;3.07;;
13933;SDS011;7039;52.168;9.866;2022-08-11T01:43:58;5.73;;;3.47;;
13933;SDS011;7039;52.168;9.866;2022-08-11T01:46:51;4.70;;;3.27;;
13933;SDS011;7039;52.168;9.866;2022-08-11T01:49:23;4.00;;;3.30;;
13933;SDS011;7039;52.168;9.866;2022-08-11T01:52:03;5.23;;;3.10;;
13933;SDS011;7039;52.168;9.866;2022-08-11T01:54:40;5.97;;;3.20;;
13933;SDS011;7039;52.168;9.866;2022-08-11T01:57:18;4.70;;;3.43;;
13933;SDS011;7039;52.168;9.866;2022-08-11T01:59:55;8.53;;;3.40;;
13933;SDS011;7039;52.168;9.866;2022-08-11T02:02:34;4.20;;;3.23;;
13933;SDS011;7039;52.168;9.866;2022-08-11T02:05:28;5.77;;;3.07;;
13933;SDS011;7039;52.168;9.866;2022-08-11T02:08:18;7.50;;;3.37;;
13933;SDS011;7039;52.168;9.866;2022-08-11T02:10:53;4.70;;;3.63;;
13933;SDS011;7039;52.168;9.866;2022-08-11T02:13:45;5.93;;;3.13;;
13933;SDS011;7039;52.168;9.866;2022-08-11T02:16:16;5.67;;;3.00;;
13933;SDS011;7039;52.168;9.866;2022-08-11T02:18:48;4.23;;;3.03;;
13933;SDS011;7039;52.168;9.866;2022-08-11T02:21:41;4.90;;;3.30;;
13933;SDS011;7039;52.168;9.866;2022-08-11T02:24:38;5.20;;;3.33;;
13933;SDS011;7039;52.168;9.866;2022-08-11T02:27:16;6.17;;;3.03;;
13933;SDS011;7039;52.168;9.866;2022-08-11T02:29:50;5.17;;;3.07;;
13933;SDS011;7039;52.168;9.866;2022-08-11T02:32:30;4.70;;;3.23;;
13933;SDS011;7039;52.168;9.866;2022-08-11T02:35:21;5.90;;;2.90;;
13933;SDS011;7039;52.168;9.866;2022-08-11T02:40:44;3.90;;;2.70;;
13933;SDS011;7039;52.168;9.866;2022-08-11T02:43:19;3.70;;;2.60;;
13933;SDS011;7039;52.168;9.866;2022-08-11T02:46:00;2.90;;;2.50;;
13933;SDS011;7039;52.168;9.866;2022-08-11T02:48:37;5.07;;;3.13;;
13933;SDS011;7039;52.168;9.866;2022-08-11T02:51:34;4.23;;;2.57;;
13933;SDS011;7039;52.168;9.866;2022-08-11T02:54:09;8.07;;;2.30;;
13933;SDS011;7039;52.168;9.866;2022-08-11T02:56:45;2.73;;;2.20;;
13933;SDS011;7039;52.168;9.866;2022-08-11T02:59:27;6.87;;;2.70;;
13933;SDS011;7039;52.168;9.866;2022-08-11T03:02:25;3.90;;;2.20;;
13933;SDS011;7039;52.168;9.866;2022-08-11T03:05:04;2.77;;;2.40;;
13933;SDS011;7039;52.168;9.866;2022-08-11T03:07:40;2.37;;;2.00;;
13933;SDS011;7039;52.168;9.866;2022-08-11T03:10:17;4.00;;;2.50;;
13933;SDS011;7039;52.168;9.866;2022-08-11T03:12:50;4.20;;;2.43;;
13933;SDS011;7039;52.168;9.866;2022-08-11T03:15:41;3.00;;;2.17;;
13933;SDS011;7039;52.168;9.866;2022-08-11T03:18:33;5.33;;;2.40;;
13933;SDS011;7039;52.168;9.866;2022-08-11T03:21:08;4.03;;;2.33;;
13933;SDS011;7039;52.168;9.866;2022-08-11T03:23:47;3.20;;;2.30;;
13933;SDS011;7039;52.168;9.866;2022-08-11T03:26:22;4.17;;;2.60;;
13933;SDS011;7039;52.168;9.866;2022-08-11T03:28:56;3.40;;;2.33;;
13933;SDS011;7039;52.168;9.866;2022-08-11T03:31:31;2.87;;;2.20;;
13933;SDS011;7039;52.168;9.866;2022-08-11T03:34:02;4.73;;;2.83;;
13933;SDS011;7039;52.168;9.866;2022-08-11T03:40:11;6.83;;;2.23;;
13933;SDS011;7039;52.168;9.866;2022-08-11T03:43:17;2.73;;;1.97;;
13933;SDS011;7039;52.168;9.866;2022-08-11T03:45:57;7.93;;;2.57;;
13933;SDS011;7039;52.168;9.866;2022-08-11T03:48:36;3.00;;;2.40;;
13933;SDS011;7039;52.168;9.866;2022-08-11T03:51:18;5.07;;;2.33;;
13933;SDS011;7039;52.168;9.866;2022-08-11T03:54:00;4.57;;;2.30;;
13933;SDS011;7039;52.168;9.866;2022-08-11T03:56:51;5.80;;;2.43;;
13933;SDS011;7039;52.168;9.866;2022-08-11T04:00:06;5.10;;;2.20;;
13933;SDS011;7039;52.168;9.866;2022-08-11T04:02:51;2.70;;;2.10;;
13933;SDS011;7039;52.168;9.866;2022-08-11T04:06:02;3.53;;;2.40;;
13933;SDS011;7039;52.168;9.866;2022-08-11T04:09:04;5.83;;;2.40;;
13933;SDS011;7039;52.168;9.866;2022-08-11T06:41:02;6.47;;;4.10;;
13933;SDS011;7039;52.168;9.866;2022-08-11T06:49:00;7.23;;;3.67;;
13933;SDS011;7039;52.168;9.866;2022-08-11T06:51:29;11.40;;;4.33;;
13933;SDS011;7039;52.168;9.866;2022-08-11T06:53:56;7.37;;;3.47;;
13933;SDS011;7039;52.168;9.866;2022-08-11T06:56:28;4.37;;;3.00;;
13933;SDS011;7039;52.168;9.866;2022-08-11T06:59:14;8.23;;;3.90;;
13933;SDS011;7039;52.168;9.866;2022-08-11T07:02:01;6.37;;;3.40;;
13933;SDS011;7039;52.168;9.866;2022-08-11T07:04:34;9.13;;;4.10;;
13933;SDS011;7039;52.168;9.866;2022-08-11T07:10:32;5.50;;;3.60;;
13933;SDS011;7039;52.168;9.866;2022-08-11T07:13:32;5.73;;;3.37;;
13933;SDS011;7039;52.168;9.866;2022-08-11T07:16:20;8.07;;;3.17;;
13933;SDS011;7039;52.168;9.866;2022-08-11T07:18:52;8.73;;;3.57;;
13933;SDS011;7039;52.168;9.866;2022-08-11T07:21:42;6.43;;;3.07;;
13933;SDS011;7039;52.168;9.866;2022-08-11T07:24:30;7.20;;;3.23;;
13933;SDS011;7039;52.168;9.866;2022-08-11T07:27:19;10.93;;;3.60;;
13933;SDS011;7039;52.168;9.866;2022-08-11T07:30:08;6.20;;;3.00;;
13933;SDS011;7039;52.168;9.866;2022-08-11T07:32:36;6.10;;;3.73;;
13933;SDS011;7039;52.168;9.866;2022-08-11T07:35:17;5.63;;;3.53;;
13933;SDS011;7039;52.168;9.866;2022-08-11T07:37:49;5.13;;;3.30;;
13933;SDS011;7039;52.168;9.866;2022-08-11T07:40:22;8.37;;;3.80;;
13933;SDS011;7039;52.168;9.866;2022-08-11T07:42:50;7.00;;;3.60;;
13933;SDS011;7039;52.168;9.866;2022-08-11T07:45:20;6.50;;;3.30;;
13933;SDS011;7039;52.168;9.866;2022-08-11T07:48:06;8.20;;;3.30;;
13933;SDS011;7039;52.168;9.866;2022-08-11T07:50:52;6.80;;;3.70;;
13933;SDS011;7039;52.168;9.866;2022-08-11T07:53:37;16.93;;;3.70;;
13933;SDS011;7039;52.168;9.866;2022-08-11T07:56:04;6.13;;;3.63;;
13933;SDS011;7039;52.168;9.866;2022-08-11T07:58:33;9.67;;;3.73;;
13933;SDS011;7039;52.168;9.866;2022-08-11T08:01:21;11.80;;;3.70;;
13933;SDS011;7039;52.168;9.866;2022-08-11T08:04:06;12.83;;;4.43;;
13933;SDS011;7039;52.168;9.866;2022-08-11T08:06:52;8.40;;;4.30;;
13933;SDS011;7039;52.168;9.866;2022-08-11T08:09:37;10.70;;;3.90;;
13933;SDS011;7039;52.168;9.866;2022-08-11T08:12:24;15.67;;;4.53;;
13933;SDS011;7039;52.168;9.866;2022-08-11T08:15:09;8.27;;;4.00;;
13933;SDS011;7039;52.168;9.866;2022-08-11T08:17:59;14.40;;;4.07;;
13933;SDS011;7039;52.168;9.866;2022-08-11T08:20:28;7.70;;;3.70;;
13933;SDS011;7039;52.168;9.866;2022-08-11T08:22:58;13.67;;;4.20;;
13933;SDS011;7039;52.168;9.866;2022-08-11T08:25:27;9.37;;;3.87;;
13933;SDS011;7039;52.168;9.866;2022-08-11T08:27:57;9.10;;;3.60;;
13933;SDS011;7039;52.168;9.866;2022-08-11T08:30:26;10.77;;;3.40;;
13933;SDS011;7039;52.168;9.866;2022-08-11T08:33:13;9.50;;;3.57;;
13933;SDS011;7039;52.168;9.866;2022-08-11T08:35:42;11.90;;;3.30;;
13933;SDS011;7039;52.168;9.866;2022-08-11T08:38:11;8.23;;;3.23;;
13933;SDS011;7039;52.168;9.866;2022-08-11T08:40:40;6.43;;;3.10;;
13933;SDS011;7039;52.168;9.866;2022-08-11T08:43:09;7.50;;;2.90;;
13933;SDS011;7039;52.168;9.866;2022-08-11T08:45:41;7.07;;;2.90;;
13933;SDS011;7039;52.168;9.866;2022-08-11T08:48:10;6.27;;;3.43;;
13933;SDS011;7039;52.168;9.866;2022-08-11T08:50:42;11.03;;;3.00;;
13933;SDS011;7039;52.168;9.866;2022-08-11T08:53:29;4.63;;;3.40;;
13933;SDS011;7039;52.168;9.866;2022-08-11T08:56:00;8.40;;;3.38;;
13933;SDS011;7039;52.168;9.866;2022-08-11T08:58:27;11.88;;;3.25;;
13933;SDS011;7039;52.168;9.866;2022-08-11T09:00:56;11.57;;;3.72;;
13933;SDS011;7039;52.168;9.866;2022-08-11T09:03:25;16.58;;;4.10;;
13933;SDS011;7039;52.168;9.866;2022-08-11T09:05:54;9.00;;;3.80;;
13933;SDS011;7039;52.168;9.866;2022-08-11T09:08:22;8.38;;;4.13;;
13933;SDS011;7039;52.168;9.866;2022-08-11T09:10:50;8.88;;;3.38;;
13933;SDS011;7039;52.168;9.866;2022-08-11T09:13:31;9.15;;;3.47;;
13933;SDS011;7039;52.168;9.866;2022-08-11T09:15:59;6.03;;;3.70;;
13933;SDS011;7039;52.168;9.866;2022-08-11T09:18:25;10.35;;;3.80;;
13933;SDS011;7039;52.168;9.866;2022-08-11T09:20:55;9.18;;;3.80;;
13933;SDS011;7039;52.168;9.866;2022-08-11T09:23:22;7.45;;;3.70;;
13933;SDS011;7039;52.168;9.866;2022-08-11T09:26:03;10.13;;;3.80;;
13933;SDS011;7039;52.168;9.866;2022-08-11T09:28:49;7.80;;;3.47;;
13933;SDS011;7039;52.168;9.866;2022-08-11T09:31:17;6.50;;;3.47;;
13933;SDS011;7039;52.168;9.866;2022-08-11T09:33:47;7.32;;;3.47;;
13933;SDS011;7039;52.168;9.866;2022-08-11T09:36:17;10.73;;;3.72;;
13933;SDS011;7039;52.168;9.866;2022-08-11T09:39:03;10.00;;;3.35;;
13933;SDS011;7039;52.168;9.866;2022-08-11T09:41:48;8.90;;;3.42;;
13933;SDS011;7039;52.168;9.866;2022-08-11T09:44:16;8.50;;;3.40;;
13933;SDS011;7039;52.168;9.866;2022-08-11T09:47:00;6.22;;;3.30;;
13933;SDS011;7039;52.168;9.866;2022-08-11T09:49:29;4.35;;;3.20;;
13933;SDS011;7039;52.168;9.866;2022-08-11T09:51:58;8.63;;;3.42;;
13933;SDS011;7039;52.168;9.866;2022-08-11T09:54:26;4.13;;;2.95;;
13933;SDS011;7039;52.168;9.866;2022-08-11T09:56:53;4.78;;;2.90;;
13933;SDS011;7039;52.168;9.866;2022-08-11T09:59:37;5.57;;;3.28;;
13933;SDS011;7039;52.168;9.866;2022-08-11T10:02:05;8.32;;;3.20;;
13933;SDS011;7039;52.168;9.866;2022-08-11T10:04:37;5.90;;;3.17;;
13933;SDS011;7039;52.168;9.866;2022-08-11T10:07:08;9.13;;;2.90;;
13933;SDS011;7039;52.168;9.866;2022-08-11T10:09:36;5.95;;;3.28;;
13933;SDS011;7039;52.168;9.866;2022-08-11T10:12:05;4.80;;;3.00;;
13933;SDS011;7039;52.168;9.866;2022-08-11T10:14:36;4.55;;;2.90;;
13933;SDS011;7039;52.168;9.866;2022-08-11T10:17:26;3.03;;;2.83;;
13933;SDS011;7039;52.168;9.866;2022-08-11T10:19:57;3.75;;;3.05;;
13933;SDS011;7039;52.168;9.866;2022-08-11T10:22:28;6.80;;;2.85;;
13933;SDS011;7039;52.168;9.866;2022-08-11T10:25:14;3.58;;;3.03;;
13933;SDS011;7039;52.168;9.866;2022-08-11T10:27:58;3.13;;;2.78;;
13933;SDS011;7039;52.168;9.866;2022-08-11T10:30:28;3.95;;;3.00;;
13933;SDS011;7039;52.168;9.866;2022-08-11T10:33:12;3.33;;;3.03;;
13933;SDS011;7039;52.168;9.866;2022-08-11T10:35:56;7.13;;;3.20;;
13933;SDS011;7039;52.168;9.866;2022-08-11T10:38:25;3.47;;;3.17;;
13933;SDS011;7039;52.168;9.866;2022-08-11T10:40:53;6.07;;;2.88;;
13933;SDS011;7039;52.168;9.866;2022-08-11T10:43:35;7.72;;;3.20;;
13933;SDS011;7039;52.168;9.866;2022-08-11T10:46:05;9.95;;;3.05;;
13933;SDS011;7039;52.168;9.866;2022-08-11T10:48:51;4.43;;;3.22;;
13933;SDS011;7039;52.168;9.866;2022-08-11T10:51:20;4.97;;;3.05;;
13933;SDS011;7039;52.168;9.866;2022-08-11T10:54:02;5.28;;;3.10;;
13933;SDS011;7039;52.168;9.866;2022-08-11T10:56:47;8.20;;;3.03;;
13933;SDS011;7039;52.168;9.866;2022-08-11T10:59:32;6.18;;;2.90;;
13933;SDS011;7039;52.168;9.866;2022-08-11T11:01:59;3.85;;;3.45;;
13933;SDS011;7039;52.168;9.866;2022-08-11T11:04:28;3.90;;;3.15;;
13933;SDS011;7039;52.168;9.866;2022-08-11T11:07:02;8.48;;;3.00;;
13933;SDS011;7039;52.168;9.866;2022-08-11T11:09:32;6.45;;;3.28;;
13933;SDS011;7039;52.168;9.866;2022-08-11T11:12:06;4.38;;;2.92;;
13933;SDS011;7039;52.168;9.866;2022-08-11T11:14:54;3.28;;;2.97;;
13933;SDS011;7039;52.168;9.866;2022-08-11T11:17:40;5.85;;;2.97;;
13933;SDS011;7039;52.168;9.866;2022-08-11T11:20:25;3.35;;;3.05;;
13933;SDS011;7039;52.168;9.866;2022-08-11T11:22:55;5.38;;;2.95;;
13933;SDS011;7039;52.168;9.866;2022-08-11T11:25:34;3.95;;;2.80;;
13933;SDS011;7039;52.168;9.866;2022-08-11T11:28:33;3.97;;;3.10;;
13933;SDS011;7039;52.168;9.866;2022-08-11T11:31:22;6.20;;;3.53;;
13933;SDS011;7039;52.168;9.866;2022-08-11T11:34:06;4.05;;;3.15;;
13933;SDS011;7039;52.168;9.866;2022-08-11T11:36:44;4.18;;;3.15;;
13933;SDS011;7039;52.168;9.866;2022-08-11T11:39:15;4.95;;;3.15;;
13933;SDS011;7039;52.168;9.866;2022-08-11T11:41:45;5.68;;;3.20;;
13933;SDS011;7039;52.168;9.866;2022-08-11T11:44:14;5.00;;;3.55;;
13933;SDS011;7039;52.168;9.866;2022-08-11T11:46:42;6.00;;;3.35;;
13933;SDS011;7039;52.168;9.866;2022-08-11T11:49:11;9.10;;;3.28;;
13933;SDS011;7039;52.168;9.866;2022-08-11T11:51:39;8.45;;;3.28;;
13933;SDS011;7039;52.168;9.866;2022-08-11T11:54:07;7.18;;;3.20;;
13933;SDS011;7039;52.168;9.866;2022-08-11T11:56:34;6.30;;;3.28;;
13933;SDS011;7039;52.168;9.866;2022-08-11T11:59:04;5.53;;;3.20;;
13933;SDS011;7039;52.168;9.866;2022-08-11T12:01:50;3.75;;;3.40;;
13933;SDS011;7039;52.168;9.866;2022-08-11T12:04:18;8.70;;;3.85;;
13933;SDS011;7039;52.168;9.866;2022-08-11T12:06:45;7.03;;;3.40;;
13933;SDS011;7039;52.168;9.866;2022-08-11T12:09:12;3.97;;;3.50;;
13933;SDS011;7039;52.168;9.866;2022-08-11T12:11:47;3.67;;;3.30;;
13933;SDS011;7039;52.168;9.866;2022-08-11T12:14:34;3.78;;;3.17;;
13933;SDS011;7039;52.168;9.866;2022-08-11T12:17:02;5.60;;;3.53;;
13933;SDS011;7039;52.168;9.866;2022-08-11T12:19:29;3.88;;;3.40;;
13933;SDS011;7039;52.168;9.866;2022-08-11T12:21:56;13.73;;;3.47;;
13933;SDS011;7039;52.168;9.866;2022-08-11T12:24:41;3.80;;;3.40;;
13933;SDS011;7039;52.168;9.866;2022-08-11T12:27:26;4.70;;;3.05;;
13933;SDS011;7039;52.168;9.866;2022-08-11T12:29:58;11.63;;;3.35;;
13933;SDS011;7039;52.168;9.866;2022-08-11T12:32:30;5.05;;;3.47;;
13933;SDS011;7039;52.168;9.866;2022-08-11T12:35:00;4.95;;;3.50;;
13933;SDS011;7039;52.168;9.866;2022-08-11T12:37:29;4.55;;;3.53;;
13933;SDS011;7039;52.168;9.866;2022-08-11T12:39:59;3.38;;;3.05;;
13933;SDS011;7039;52.168;9.866;2022-08-11T12:42:45;5.72;;;3.38;;
13933;SDS011;7039;52.168;9.866;2022-08-11T12:45:32;3.35;;;3.05;;
13933;SDS011;7039;52.168;9.866;2022-08-11T12:48:03;5.78;;;3.42;;
13933;SDS011;7039;52.168;9.866;2022-08-11T12:50:53;4.90;;;3.38;;
13933;SDS011;7039;52.168;9.866;2022-08-11T12:53:42;8.05;;;3.67;;
13933;SDS011;7039;52.168;9.866;2022-08-11T12:56:15;7.07;;;3.22;;
13933;SDS011;7039;52.168;9.866;2022-08-11T12:59:10;7.35;;;3.13;;
13933;SDS011;7039;52.168;9.866;2022-08-11T13:01:55;3.30;;;3.00;;
13933;SDS011;7039;52.168;9.866;2022-08-11T13:04:40;5.60;;;3.20;;
13933;SDS011;7039;52.168;9.866;2022-08-11T13:07:23;3.95;;;3.30;;
13933;SDS011;7039;52.168;9.866;2022-08-11T13:09:51;5.53;;;3.00;;
13933;SDS011;7039;52.168;9.866;2022-08-11T13:12:18;5.25;;;3.40;;
13933;SDS011;7039;52.168;9.866;2022-08-11T13:15:05;6.55;;;3.28;;
13933;SDS011;7039;52.168;9.866;2022-08-11T13:17:36;10.07;;;3.28;;
13933;SDS011;7039;52.168;9.866;2022-08-11T13:20:06;5.03;;;3.00;;
13933;SDS011;7039;52.168;9.866;2022-08-11T13:22:36;7.68;;;3.25;;
13933;SDS011;7039;52.168;9.866;2022-08-11T13:25:04;3.25;;;2.90;;
13933;SDS011;7039;52.168;9.866;2022-08-11T13:27:32;5.82;;;2.92;;
13933;SDS011;7039;52.168;9.866;2022-08-11T13:30:00;3.05;;;2.83;;
13933;SDS011;7039;52.168;9.866;2022-08-11T13:32:43;9.93;;;2.83;;
13933;SDS011;7039;52.168;9.866;2022-08-11T13:35:11;7.63;;;2.90;;
13933;SDS011;7039;52.168;9.866;2022-08-11T13:37:40;3.78;;;2.80;;
13933;SDS011;7039;52.168;9.866;2022-08-11T13:40:10;8.38;;;3.15;;
13933;SDS011;7039;52.168;9.866;2022-08-11T13:42:37;3.75;;;3.40;;
13933;SDS011;7039;52.168;9.866;2022-08-11T13:45:06;3.40;;;3.00;;
13933;SDS011;7039;52.168;9.866;2022-08-11T13:47:34;4.28;;;3.33;;
13933;SDS011;7039;52.168;9.866;2022-08-11T13:50:05;6.82;;;3.03;;
13933;SDS011;7039;52.168;9.866;2022-08-11T13:52:33;3.95;;;3.00;;
13933;SDS011;7039;52.168;9.866;2022-08-11T13:55:03;5.63;;;3.05;;
13933;SDS011;7039;52.168;9.866;2022-08-11T13:57:32;4.47;;;2.97;;
13933;SDS011;7039;52.168;9.866;2022-08-11T14:00:00;4.60;;;3.05;;
13933;SDS011;7039;52.168;9.866;2022-08-11T14:02:35;3.70;;;2.92;;
13933;SDS011;7039;52.168;9.866;2022-08-11T14:05:07;4.40;;;2.72;;
13933;SDS011;7039;52.168;9.866;2022-08-11T14:07:40;4.80;;;3.03;;
13933;SDS011;7039;52.168;9.866;2022-08-11T14:10:13;5.13;;;3.17;;
13933;SDS011;7039;52.168;9.866;2022-08-11T14:12:42;3.35;;;2.78;;
13933;SDS011;7039;52.168;9.866;2022-08-11T14:15:34;8.15;;;3.10;;
13933;SDS011;7039;52.168;9.866;2022-08-11T14:18:02;8.82;;;3.15;;
13933;SDS011;7039;52.168;9.866;2022-08-11T14:20:34;3.85;;;3.22;;
13933;SDS011;7039;52.168;9.866;2022-08-11T14:23:23;8.15;;;3.28;;
13933;SDS011;7039;52.168;9.866;2022-08-11T14:25:53;3.25;;;2.70;;
13933;SDS011;7039;52.168;9.866;2022-08-11T14:28:38;5.40;;;2.95;;
13933;SDS011;7039;52.168;9.866;2022-08-11T14:31:06;10.90;;;2.83;;
13933;SDS011;7039;52.168;9.866;2022-08-11T14:33:33;3.15;;;2.90;;
13933;SDS011;7039;52.168;9.866;2022-08-11T14:36:03;10.35;;;3.05;;
13933;SDS011;7039;52.168;9.866;2022-08-11T14:38:31;7.68;;;3.15;;
13933;SDS011;7039;52.168;9.866;2022-08-11T14:43:43;6.68;;;3.05;;
13933;SDS011;7039;52.168;9.866;2022-08-11T14:46:27;4.53;;;3.38;;
13933;SDS011;7039;52.168;9.866;2022-08-11T14:49:12;4.33;;;2.90;;
13933;SDS011;7039;52.168;9.866;2022-08-11T14:51:41;4.60;;;2.80;;
13933;SDS011;7039;52.168;9.866;2022-08-11T14:54:08;4.10;;;2.70;;
13933;SDS011;7039;52.168;9.866;2022-08-11T14:56:52;6.05;;;3.10;;
13933;SDS011;7039;52.168;9.866;2022-08-11T14:59:21;5.70;;;2.88;;
13933;SDS011;7039;52.168;9.866;2022-08-11T15:01:49;6.03;;;2.85;;
13933;SDS011;7039;52.168;9.866;2022-08-11T15:04:33;6.25;;;2.60;;
13933;SDS011;7039;52.168;9.866;2022-08-11T15:07:02;4.10;;;2.80;;
13933;SDS011;7039;52.168;9.866;2022-08-11T15:09:29;6.03;;;2.90;;
13933;SDS011;7039;52.168;9.866;2022-08-11T15:11:57;5.97;;;3.20;;
13933;SDS011;7039;52.168;9.866;2022-08-11T15:14:34;4.30;;;2.77;;
13933;SDS011;7039;52.168;9.866;2022-08-11T15:17:18;9.30;;;3.10;;
13933;SDS011;7039;52.168;9.866;2022-08-11T15:19:46;6.00;;;3.10;;
13933;SDS011;7039;52.168;9.866;2022-08-11T15:22:30;5.28;;;3.05;;
13933;SDS011;7039;52.168;9.866;2022-08-11T15:25:14;3.60;;;3.30;;
13933;SDS011;7039;52.168;9.866;2022-08-11T15:27:41;6.47;;;2.90;;
13933;SDS011;7039;52.168;9.866;2022-08-11T15:30:29;4.93;;;3.08;;
13933;SDS011;7039;52.168;9.866;2022-08-11T15:33:14;7.40;;;3.33;;
13933;SDS011;7039;52.168;9.866;2022-08-11T15:36:02;3.58;;;2.95;;
13933;SDS011;7039;52.168;9.866;2022-08-11T15:38:53;3.65;;;3.10;;
13933;SDS011;7039;52.168;9.866;2022-08-11T15:41:25;5.03;;;3.33;;
13933;SDS011;7039;52.168;9.866;2022-08-11T15:44:14;3.58;;;2.92;;
13933;SDS011;7039;52.168;9.866;2022-08-11T15:47:01;6.50;;;3.00;;
13933;SDS011;7039;52.168;9.866;2022-08-11T15:49:30;2.95;;;2.65;;
13933;SDS011;7039;52.168;9.866;2022-08-11T15:52:02;3.33;;;2.78;;
13933;SDS011;7039;52.168;9.866;2022-08-11T15:54:41;4.72;;;2.92;;
13933;SDS011;7039;52.168;9.866;2022-08-11T15:57:10;2.67;;;2.47;;
13933;SDS011;7039;52.168;9.866;2022-08-11T16:00:00;3.70;;;2.92;;
13933;SDS011;7039;52.168;9.866;2022-08-11T16:02:47;4.45;;;2.50;;
13933;SDS011;7039;52.168;9.866;2022-08-11T16:05:33;4.22;;;2.80;;
13933;SDS011;7039;52.168;9.866;2022-08-11T16:08:01;5.32;;;2.70;;
13933;SDS011;7039;52.168;9.866;2022-08-11T16:10:31;3.92;;;2.45;;
13933;SDS011;7039;52.168;9.866;2022-08-11T16:12:59;6.68;;;2.63;;
13933;SDS011;7039;52.168;9.866;2022-08-11T16:15:57;4.00;;;2.55;;
13933;SDS011;7039;52.168;9.866;2022-08-11T16:18:44;6.07;;;3.10;;
13933;SDS011;7039;52.168;9.866;2022-08-11T16:21:16;10.05;;;2.90;;
13933;SDS011;7039;52.168;9.866;2022-08-11T16:23:44;3.58;;;2.72;;
13933;SDS011;7039;52.168;9.866;2022-08-11T16:26:14;5.53;;;2.80;;
13933;SDS011;7039;52.168;9.866;2022-08-11T16:28:44;26.52;;;4.55;;
13933;SDS011;7039;52.168;9.866;2022-08-11T16:31:13;15.10;;;3.40;;
13933;SDS011;7039;52.168;9.866;2022-08-11T16:33:41;4.85;;;3.10;;
13933;SDS011;7039;52.168;9.866;2022-08-11T16:36:09;3.88;;;2.80;;
13933;SDS011;7039;52.168;9.866;2022-08-11T16:38:54;4.00;;;2.65;;
13933;SDS011;7039;52.168;9.866;2022-08-11T16:41:24;6.53;;;2.80;;
13933;SDS011;7039;52.168;9.866;2022-08-11T16:44:10;2.78;;;2.58;;
13933;SDS011;7039;52.168;9.866;2022-08-11T16:46:57;4.43;;;2.92;;
13933;SDS011;7039;52.168;9.866;2022-08-11T16:49:26;8.57;;;2.45;;
13933;SDS011;7039;52.168;9.866;2022-08-11T16:51:55;8.38;;;2.80;;
13933;SDS011;7039;52.168;9.866;2022-08-11T16:54:22;4.45;;;2.95;;
13933;SDS011;7039;52.168;9.866;2022-08-11T16:56:50;5.38;;;2.33;;
13933;SDS011;7039;52.168;9.866;2022-08-11T16:59:18;3.30;;;2.67;;
13933;SDS011;7039;52.168;9.866;2022-08-11T17:01:47;2.67;;;2.47;;
13933;SDS011;7039;52.168;9.866;2022-08-11T17:04:23;5.03;;;2.42;;
13933;SDS011;7039;52.168;9.866;2022-08-11T17:07:12;3.75;;;2.50;;
13933;SDS011;7039;52.168;9.866;2022-08-11T17:10:08;8.13;;;2.78;;
13933;SDS011;7039;52.168;9.866;2022-08-11T17:12:59;4.05;;;2.60;;
13933;SDS011;7039;52.168;9.866;2022-08-11T17:15:34;3.25;;;2.95;;
13933;SDS011;7039;52.168;9.866;2022-08-11T17:18:20;5.78;;;3.58;;
13933;SDS011;7039;52.168;9.866;2022-08-11T17:21:02;6.88;;;3.00;;
13933;SDS011;7039;52.168;9.866;2022-08-11T17:23:30;7.00;;;4.88;;
13933;SDS011;7039;52.168;9.866;2022-08-11T17:26:24;13.95;;;7.00;;
13933;SDS011;7039;52.168;9.866;2022-08-11T17:29:14;6.50;;;3.83;;
13933;SDS011;7039;52.168;9.866;2022-08-11T17:31:43;8.05;;;3.40;;
13933;SDS011;7039;52.168;9.866;2022-08-11T17:34:29;5.30;;;2.80;;
13933;SDS011;7039;52.168;9.866;2022-08-11T17:37:14;2.90;;;2.65;;
13933;SDS011;7039;52.168;9.866;2022-08-11T17:39:41;4.45;;;3.10;;
13933;SDS011;7039;52.168;9.866;2022-08-11T17:42:09;7.35;;;2.65;;
13933;SDS011;7039;52.168;9.866;2022-08-11T17:44:55;3.08;;;2.83;;
13933;SDS011;7039;52.168;9.866;2022-08-11T17:47:40;6.72;;;2.65;;
13933;SDS011;7039;52.168;9.866;2022-08-11T17:50:25;4.85;;;2.75;;
13933;SDS011;7039;52.168;9.866;2022-08-11T17:52:53;5.28;;;2.72;;
13933;SDS011;7039;52.168;9.866;2022-08-11T17:55:39;2.78;;;2.58;;
13933;SDS011;7039;52.168;9.866;2022-08-11T17:58:24;8.57;;;2.70;;
13933;SDS011;7039;52.168;9.866;2022-08-11T18:01:12;4.63;;;2.80;;
13933;SDS011;7039;52.168;9.866;2022-08-11T18:03:39;7.43;;;2.92;;
13933;SDS011;7039;52.168;9.866;2022-08-11T18:06:07;6.82;;;2.70;;
13933;SDS011;7039;52.168;9.866;2022-08-11T18:08:37;4.15;;;2.72;;
13933;SDS011;7039;52.168;9.866;2022-08-11T18:11:26;3.60;;;2.67;;
13933;SDS011;7039;52.168;9.866;2022-08-11T18:14:12;3.75;;;2.58;;
13933;SDS011;7039;52.168;9.866;2022-08-11T18:16:59;5.80;;;2.60;;
13933;SDS011;7039;52.168;9.866;2022-08-11T18:19:43;5.57;;;2.40;;
13933;SDS011;7039;52.168;9.866;2022-08-11T18:22:28;8.55;;;2.80;;
13933;SDS011;7039;52.168;9.866;2022-08-11T18:25:17;7.00;;;2.50;;
13933;SDS011;7039;52.168;9.866;2022-08-11T18:28:04;4.70;;;2.50;;
13933;SDS011;7039;52.168;9.866;2022-08-11T18:30:50;5.38;;;2.53;;
13933;SDS011;7039;52.168;9.866;2022-08-11T18:33:38;4.40;;;2.38;;
13933;SDS011;7039;52.168;9.866;2022-08-11T18:36:28;6.82;;;2.60;;
13933;SDS011;7039;52.168;9.866;2022-08-11T18:39:14;7.57;;;2.70;;
13933;SDS011;7039;52.168;9.866;2022-08-11T18:42:05;8.32;;;2.90;;
13933;SDS011;7039;52.168;9.866;2022-08-11T18:44:52;4.68;;;2.67;;
13933;SDS011;7039;52.168;9.866;2022-08-11T18:47:38;5.20;;;2.58;;
13933;SDS011;7039;52.168;9.866;2022-08-11T18:50:25;5.22;;;3.15;;
13933;SDS011;7039;52.168;9.866;2022-08-11T18:53:09;4.22;;;2.40;;
13933;SDS011;7039;52.168;9.866;2022-08-11T18:55:56;4.22;;;2.40;;
13933;SDS011;7039;52.168;9.866;2022-08-11T18:58:42;5.13;;;2.60;;
13933;SDS011;7039;52.168;9.866;2022-08-11T19:01:27;3.05;;;2.80;;
13933;SDS011;7039;52.168;9.866;2022-08-11T19:04:14;6.07;;;2.67;;
13933;SDS011;7039;52.168;9.866;2022-08-11T19:07:01;5.88;;;2.60;;